Time;durP1;ratioP1;P1;durP2;ratioP2;P2;SDS_P1;SDS_P2;PMS_P1;PMS_P2;Temp;Humidity;BMP_temperature;BMP_pressure;BME280_temperature;BME280_humidity;BME280_pressure;Samples;Min_cycle;Max_cycle;Signal;HPM_P1;HPM_P2
2021/03/12 00:01:30;;;;;;;2.20;0.80;;;9.30;99.90;;;;;;5023017;28;20524;-78
2021/03/12 00:03:56;;;;;;;3.00;0.70;;;9.30;99.90;;;;;;5055319;28;20169;-78
2021/03/12 00:06:24;;;;;;;4.22;0.90;;;9.30;99.90;;;;;;5055036;28;20553;-78
2021/03/12 00:08:52;;;;;;;3.33;1.00;;;9.20;99.90;;;;;;5055035;28;20172;-78
2021/03/12 00:11:23;;;;;;;2.50;0.60;;;9.20;99.90;;;;;;5053842;28;20173;-78
2021/03/12 00:13:48;;;;;;;3.00;0.70;;;9.20;99.90;;;;;;5055216;28;20550;-76
2021/03/12 00:16:14;;;;;;;3.77;0.70;;;9.10;99.90;;;;;;5053638;28;20193;-77
2021/03/12 00:18:45;;;;;;;3.00;0.80;;;9.10;99.90;;;;;;5057966;28;20560;-78
2021/03/12 00:21:12;;;;;;;3.47;0.70;;;9.00;99.90;;;;;;5059461;28;20161;-78
2021/03/12 00:23:40;;;;;;;2.75;0.75;;;9.00;99.90;;;;;;5057959;28;20161;-78
2021/03/12 00:26:07;;;;;;;3.00;0.70;;;8.90;99.90;;;;;;5058930;28;20185;-78
2021/03/12 00:28:37;;;;;;;3.55;1.05;;;8.90;99.90;;;;;;5057137;28;20205;-78
2021/03/12 00:31:05;;;;;;;2.85;0.90;;;8.80;99.90;;;;;;5044445;28;20196;-78
2021/03/12 00:33:34;;;;;;;3.42;0.75;;;8.80;99.90;;;;;;5058854;28;20173;-78
2021/03/12 00:36:00;;;;;;;5.50;0.80;;;8.80;99.90;;;;;;5057079;28;20181;-78
2021/03/12 00:38:27;;;;;;;2.58;0.75;;;8.80;99.90;;;;;;5040105;28;20246;-79
2021/03/12 00:40:57;;;;;;;3.05;0.73;;;8.80;99.90;;;;;;5040554;28;20180;-78
2021/03/12 00:43:26;;;;;;;3.38;0.98;;;8.80;99.90;;;;;;5056204;28;20219;-78
2021/03/12 00:46:05;;;;;;;4.85;0.90;;;8.90;99.90;;;;;;5055716;28;20193;-78
2021/03/12 00:48:32;;;;;;;1.60;0.80;;;8.90;99.90;;;;;;5054361;28;20201;-76
2021/03/12 00:51:01;;;;;;;3.60;0.82;;;9.00;99.90;;;;;;5038789;28;20631;-77
2021/03/12 00:53:38;;;;;;;4.38;0.95;;;9.00;99.90;;;;;;5054858;28;20173;-77
2021/03/12 00:56:08;;;;;;;5.10;0.93;;;9.10;99.90;;;;;;5022198;28;20192;-77
2021/03/12 00:58:39;;;;;;;5.50;1.10;;;9.10;99.90;;;;;;5055054;28;20238;-77
2021/03/12 01:01:07;;;;;;;4.15;1.35;;;9.20;99.90;;;;;;5055116;28;20157;-77
2021/03/12 01:03:38;;;;;;;3.80;0.80;;;9.20;99.90;;;;;;5057227;28;20227;-77
2021/03/12 01:06:11;;;;;;;5.00;1.30;;;9.30;99.90;;;;;;5040021;28;20185;-78
2021/03/12 01:08:53;;;;;;;4.28;1.45;;;9.30;99.90;;;;;;5058933;28;20767;-77
2021/03/12 01:11:23;;;;;;;2.83;1.00;;;9.30;99.90;;;;;;5056198;28;20173;-78
2021/03/12 01:13:54;;;;;;;3.97;0.85;;;9.30;99.90;;;;;;5055778;28;20184;-78
2021/03/12 01:16:23;;;;;;;4.68;0.90;;;9.20;99.90;;;;;;5039234;28;20189;-78
2021/03/12 01:18:53;;;;;;;3.50;0.90;;;9.20;99.90;;;;;;5055928;28;20176;-78
2021/03/12 01:21:25;;;;;;;6.68;1.20;;;9.10;99.90;;;;;;5056602;28;20255;-78
2021/03/12 01:23:54;;;;;;;5.72;1.20;;;9.10;99.90;;;;;;5057324;28;20179;-76
2021/03/12 01:26:21;;;;;;;5.13;0.90;;;9.00;99.90;;;;;;5035474;28;20653;-75
2021/03/12 01:28:53;;;;;;;4.65;1.02;;;8.90;99.90;;;;;;5052095;28;20260;-75
2021/03/12 01:31:32;;;;;;;3.70;1.17;;;8.90;99.90;;;;;;5052350;28;20168;-75
2021/03/12 01:34:04;;;;;;;2.50;0.90;;;8.90;99.90;;;;;;5036887;28;20197;-75
2021/03/12 01:36:37;;;;;;;4.55;1.00;;;8.90;99.90;;;;;;5052005;28;20195;-75
2021/03/12 01:39:05;;;;;;;4.57;1.75;;;8.90;99.90;;;;;;5051911;28;20177;-75
2021/03/12 01:41:34;;;;;;;5.25;0.90;;;8.90;99.90;;;;;;5035664;28;20169;-75
2021/03/12 01:44:07;;;;;;;5.82;1.15;;;8.90;99.90;;;;;;5056819;28;20204;-74
2021/03/12 01:46:38;;;;;;;6.05;1.95;;;8.90;99.90;;;;;;5052910;28;20197;-75
2021/03/12 01:49:14;;;;;;;3.20;0.80;;;8.90;99.90;;;;;;5051897;28;20184;-76
2021/03/12 01:51:42;;;;;;;4.60;1.10;;;8.90;99.90;;;;;;5052072;28;20185;-76
2021/03/12 01:54:11;;;;;;;6.53;0.90;;;9.00;99.90;;;;;;5051893;28;20609;-74
2021/03/12 01:56:38;;;;;;;7.35;1.40;;;9.00;99.90;;;;;;5051698;28;20202;-74
2021/03/12 01:59:27;;;;;;;3.47;1.50;;;9.10;99.90;;;;;;5051466;28;20188;-74
2021/03/12 02:02:02;;;;;;;7.45;1.15;;;9.00;99.90;;;;;;5051808;28;20183;-74
2021/03/12 02:04:45;;;;;;;5.35;1.05;;;9.10;99.90;;;;;;5051572;28;20169;-74
2021/03/12 02:07:14;;;;;;;3.25;1.30;;;9.00;99.90;;;;;;5051713;28;20199;-74
2021/03/12 02:09:48;;;;;;;2.63;1.00;;;9.10;99.90;;;;;;5051349;28;20173;-75
2021/03/12 02:12:46;;;;;;;3.50;0.93;;;9.00;99.90;;;;;;5051679;28;20637;-75
2021/03/12 02:15:23;;;;;;;5.38;1.00;;;9.00;99.90;;;;;;5034784;28;20231;-75
2021/03/12 02:17:55;;;;;;;7.47;1.17;;;9.00;99.90;;;;;;5051266;28;20266;-76
2021/03/12 02:20:38;;;;;;;4.30;1.40;;;9.00;99.90;;;;;;5053522;28;20172;-75
2021/03/12 02:23:36;;;;;;;6.13;1.20;;;8.90;99.90;;;;;;5036315;28;20248;-75
2021/03/12 02:26:14;;;;;;;7.75;2.70;;;8.90;99.90;;;;;;4993107;28;20288;-75
2021/03/12 02:28:42;;;;;;;4.70;1.10;;;8.90;99.90;;;;;;5034711;28;20169;-75
2021/03/12 02:31:13;;;;;;;3.90;1.85;;;8.80;99.90;;;;;;5051112;28;20165;-75
2021/03/12 02:33:46;;;;;;;5.75;1.10;;;8.80;99.90;;;;;;5034568;28;20531;-75
2021/03/12 02:36:21;;;;;;;6.50;1.25;;;8.80;99.90;;;;;;5051018;28;20590;-76
2021/03/12 02:38:56;;;;;;;5.88;1.15;;;8.80;99.90;;;;;;5050839;28;20192;-75
2021/03/12 02:41:25;;;;;;;3.53;1.15;;;8.80;99.90;;;;;;5035190;28;20529;-75
2021/03/12 02:43:55;;;;;;;3.95;1.15;;;8.80;99.90;;;;;;5034944;28;20830;-75
2021/03/12 02:46:30;;;;;;;6.45;1.30;;;8.70;99.90;;;;;;5035430;28;20180;-76
2021/03/12 02:49:02;;;;;;;7.13;2.35;;;8.70;99.90;;;;;;5034657;28;20161;-75
2021/03/12 02:51:29;;;;;;;4.05;1.30;;;8.70;99.90;;;;;;5054003;28;20176;-76
2021/03/12 02:53:59;;;;;;;7.05;1.50;;;8.70;99.90;;;;;;5034063;28;20657;-75
2021/03/12 02:56:33;;;;;;;5.80;1.58;;;8.70;99.90;;;;;;5050891;28;20254;-76
2021/03/12 02:58:59;;;;;;;8.30;1.35;;;8.70;99.90;;;;;;5054161;28;20179;-76
2021/03/12 03:01:54;;;;;;;5.78;1.23;;;8.60;99.90;;;;;;5051385;28;20172;-75
2021/03/12 03:04:45;;;;;;;3.45;1.50;;;8.70;99.90;;;;;;5034264;28;20200;-76
2021/03/12 03:07:35;;;;;;;4.90;1.40;;;8.60;99.90;;;;;;5050567;28;20204;-76
2021/03/12 03:10:08;;;;;;;7.13;1.05;;;8.60;99.90;;;;;;5051622;28;20169;-76
2021/03/12 03:12:34;;;;;;;6.20;1.33;;;8.60;99.90;;;;;;5050721;28;20208;-76
2021/03/12 03:15:03;;;;;;;5.35;1.40;;;8.60;99.90;;;;;;5050745;28;20589;-76
2021/03/12 03:17:34;;;;;;;10.05;1.90;;;8.60;99.90;;;;;;5050351;28;20261;-76
2021/03/12 03:20:01;;;;;;;4.43;1.17;;;8.60;99.90;;;;;;5050410;28;20211;-76
2021/03/12 03:22:29;;;;;;;3.35;0.90;;;8.60;99.90;;;;;;5050518;28;20161;-75
2021/03/12 03:24:55;;;;;;;7.30;1.00;;;8.60;99.90;;;;;;5051850;28;20149;-75
2021/03/12 03:27:22;;;;;;;8.13;1.38;;;8.70;99.90;;;;;;5050272;28;20275;-75
2021/03/12 03:29:48;;;;;;;7.72;1.42;;;8.70;99.90;;;;;;5050571;28;20165;-74
2021/03/12 03:32:16;;;;;;;5.30;1.17;;;8.70;99.90;;;;;;5050760;28;20173;-74
2021/03/12 03:34:43;;;;;;;2.85;1.10;;;8.80;99.90;;;;;;5060035;28;20614;-74
2021/03/12 03:37:10;;;;;;;4.03;0.90;;;8.90;99.90;;;;;;5059192;28;20272;-74
2021/03/12 03:39:45;;;;;;;4.55;0.90;;;8.90;99.90;;;;;;5041608;28;20165;-75
2021/03/12 03:42:13;;;;;;;5.10;1.50;;;8.90;99.90;;;;;;5058668;28;20573;-74
2021/03/12 03:44:45;;;;;;;4.85;1.08;;;9.00;99.90;;;;;;5042283;28;20169;-75
2021/03/12 03:47:18;;;;;;;9.52;1.33;;;8.90;99.90;;;;;;5058670;28;20211;-75
2021/03/12 03:49:44;;;;;;;4.07;0.95;;;8.90;99.90;;;;;;5058412;28;20648;-76
2021/03/12 03:52:11;;;;;;;6.20;1.60;;;8.90;99.90;;;;;;5075167;28;20168;-75
2021/03/12 03:54:47;;;;;;;6.05;1.10;;;8.90;99.90;;;;;;5040714;28;20691;-75
2021/03/12 03:57:22;;;;;;;4.80;1.00;;;8.90;99.90;;;;;;5071668;28;20203;-74
2021/03/12 03:59:49;;;;;;;4.60;1.60;;;9.00;99.90;;;;;;5054915;28;20617;-74
2021/03/12 04:02:19;;;;;;;9.73;2.28;;;8.90;99.90;;;;;;5069807;28;20172;-75
2021/03/12 04:04:51;;;;;;;6.65;1.63;;;9.00;99.90;;;;;;5071544;28;20229;-75
2021/03/12 04:07:21;;;;;;;4.35;1.00;;;9.00;99.90;;;;;;5053108;28;20195;-75
2021/03/12 04:09:53;;;;;;;7.28;1.42;;;9.00;99.90;;;;;;5051915;28;20279;-75
2021/03/12 04:12:26;;;;;;;7.15;1.48;;;9.10;99.90;;;;;;5065190;28;20165;-75
2021/03/12 04:14:56;;;;;;;6.30;2.10;;;9.10;99.90;;;;;;5058064;28;20196;-75
2021/03/12 04:17:23;;;;;;;4.60;1.30;;;9.10;99.90;;;;;;5057338;28;20274;-75
2021/03/12 04:19:50;;;;;;;7.57;2.63;;;9.10;99.90;;;;;;5056980;28;20161;-76
2021/03/12 04:22:17;;;;;;;3.92;1.55;;;9.20;99.90;;;;;;5057803;28;20248;-76
2021/03/12 04:24:46;;;;;;;5.35;1.35;;;9.20;99.90;;;;;;5057397;28;20169;-75
2021/03/12 04:27:18;;;;;;;5.13;1.30;;;9.20;99.90;;;;;;5040661;28;20694;-75
2021/03/12 04:29:47;;;;;;;12.45;2.58;;;9.30;99.90;;;;;;5044187;28;20175;-74
2021/03/12 04:32:16;;;;;;;9.35;2.83;;;9.30;99.90;;;;;;5045350;28;20667;-74
2021/03/12 04:34:44;;;;;;;4.43;1.13;;;9.30;99.90;;;;;;5060355;28;20177;-73
2021/03/12 04:37:12;;;;;;;9.95;1.30;;;9.30;99.90;;;;;;5061395;28;20212;-74
2021/03/12 04:39:39;;;;;;;6.85;1.50;;;9.30;99.90;;;;;;5061364;28;20168;-73
2021/03/12 04:42:07;;;;;;;4.45;1.38;;;9.40;99.90;;;;;;5059444;28;20157;-74
2021/03/12 04:44:36;;;;;;;5.20;1.20;;;9.40;99.90;;;;;;5055656;28;20626;-75
2021/03/12 04:47:03;;;;;;;9.10;1.55;;;9.40;99.90;;;;;;5036262;28;20273;-75
2021/03/12 04:49:35;;;;;;;5.75;1.77;;;9.40;99.90;;;;;;5057272;28;20215;-76
2021/03/12 04:52:05;;;;;;;7.20;1.30;;;9.40;99.90;;;;;;5036975;28;20173;-76
2021/03/12 04:54:33;;;;;;;6.35;1.58;;;9.40;99.90;;;;;;5054701;28;20180;-76
2021/03/12 04:56:59;;;;;;;2.40;1.13;;;9.40;99.90;;;;;;5054654;28;20275;-76
2021/03/12 04:59:27;;;;;;;4.43;1.38;;;9.40;99.90;;;;;;5053223;28;20295;-76
2021/03/12 05:01:53;;;;;;;4.68;1.10;;;9.50;99.90;;;;;;5053170;28;20180;-76
2021/03/12 05:04:20;;;;;;;5.57;1.40;;;9.50;99.90;;;;;;5036773;28;20235;-76
2021/03/12 05:06:49;;;;;;;5.28;1.88;;;9.50;99.90;;;;;;5053114;28;20212;-76
2021/03/12 05:09:42;;;;;;;4.13;1.23;;;9.40;99.90;;;;;;5052920;28;20197;-76
2021/03/12 05:12:14;;;;;;;3.72;1.45;;;9.40;99.90;;;;;;5053359;28;20208;-76
2021/03/12 05:14:44;;;;;;;3.67;1.00;;;9.40;99.90;;;;;;5035622;28;20173;-76
2021/03/12 05:17:10;;;;;;;3.65;1.10;;;9.40;99.90;;;;;;5034863;28;20731;-76
2021/03/12 05:19:39;;;;;;;7.28;1.15;;;9.40;99.90;;;;;;5019395;28;20216;-76
2021/03/12 05:22:05;;;;;;;5.83;1.17;;;9.30;99.90;;;;;;5035876;28;20197;-76
2021/03/12 05:24:35;;;;;;;7.15;1.30;;;9.30;99.90;;;;;;5036077;28;20576;-76
2021/03/12 05:27:01;;;;;;;5.22;1.65;;;9.30;99.90;;;;;;5022344;28;20817;-76
2021/03/12 05:29:33;;;;;;;6.90;1.50;;;9.30;99.90;;;;;;5035865;28;20180;-76
2021/03/12 05:32:02;;;;;;;3.08;1.73;;;9.40;99.90;;;;;;5035662;28;20177;-76
2021/03/12 05:34:32;;;;;;;5.50;1.63;;;9.40;99.90;;;;;;5036342;28;20259;-76
2021/03/12 05:36:58;;;;;;;5.20;1.23;;;9.40;99.90;;;;;;5053538;28;20207;-76
2021/03/12 05:39:25;;;;;;;6.33;1.10;;;9.40;99.90;;;;;;5019087;28;20573;-76
2021/03/12 05:41:53;;;;;;;7.15;1.48;;;9.30;99.90;;;;;;5018999;28;20583;-76
2021/03/12 05:44:24;;;;;;;4.32;1.00;;;9.30;99.90;;;;;;5035882;28;20173;-76
2021/03/12 05:46:55;;;;;;;8.15;1.25;;;9.30;99.90;;;;;;5035436;28;20197;-75
2021/03/12 05:49:22;;;;;;;7.38;1.73;;;9.20;99.90;;;;;;5018699;28;20187;-75
2021/03/12 05:51:48;;;;;;;8.05;1.38;;;9.20;99.90;;;;;;5019055;28;20219;-75
2021/03/12 05:54:14;;;;;;;5.00;1.20;;;9.20;99.90;;;;;;5035431;28;20161;-76
2021/03/12 05:56:42;;;;;;;7.13;1.58;;;9.30;99.90;;;;;;5034617;28;20221;-76
2021/03/12 05:59:11;;;;;;;4.65;1.50;;;9.30;99.90;;;;;;5035653;28;20549;-76
2021/03/12 06:01:42;;;;;;;3.60;1.58;;;9.30;99.90;;;;;;5041129;28;20188;-76
2021/03/12 06:04:12;;;;;;;3.03;0.90;;;9.30;99.90;;;;;;5019305;28;20227;-76
2021/03/12 06:06:38;;;;;;;7.25;1.60;;;9.30;99.90;;;;;;5031595;28;20185;-76
2021/03/12 06:09:05;;;;;;;10.95;2.03;;;9.40;99.90;;;;;;5038853;28;20169;-76
2021/03/12 06:11:35;;;;;;;4.65;1.38;;;9.40;99.90;;;;;;5018591;28;20173;-75
2021/03/12 06:14:01;;;;;;;7.43;1.30;;;9.40;99.90;;;;;;5049209;28;20169;-75
2021/03/12 06:16:55;;;;;;;3.50;1.00;;;9.40;99.90;;;;;;5001637;28;20300;-75
2021/03/12 06:19:33;;;;;;;3.75;1.33;;;9.40;99.90;;;;;;5028290;28;20173;-75
2021/03/12 06:22:10;;;;;;;6.85;1.30;;;9.40;99.90;;;;;;5018115;28;20203;-80
2021/03/12 06:24:44;;;;;;;4.25;1.10;;;9.50;99.90;;;;;;5035135;28;20195;-80
2021/03/12 06:27:32;;;;;;;5.55;1.00;;;9.50;99.90;;;;;;5050784;28;20532;-80
2021/03/12 06:30:32;;;;;;;6.80;1.77;;;9.60;99.90;;;;;;5033394;28;20177;-81
2021/03/12 06:33:25;;;;;;;4.85;1.00;;;9.60;99.90;;;;;;5004591;28;20177;-80
2021/03/12 06:36:39;;;;;;;4.60;1.15;;;9.70;99.90;;;;;;5045153;28;20711;-80
2021/03/12 06:39:35;;;;;;;5.15;1.38;;;9.70;99.90;;;;;;5052545;28;20660;-81
2021/03/12 06:42:18;;;;;;;8.82;1.33;;;9.80;99.90;;;;;;5023924;28;20165;-81
2021/03/12 06:44:51;;;;;;;7.15;2.20;;;9.90;99.90;;;;;;5035074;28;20719;-81
2021/03/12 06:47:22;;;;;;;4.25;1.40;;;9.90;99.90;;;;;;5013182;28;20197;-82
2021/03/12 06:49:57;;;;;;;5.45;1.58;;;9.90;99.90;;;;;;4998930;28;20173;-82
2021/03/12 06:52:52;;;;;;;7.05;1.50;;;10.00;99.90;;;;;;5039918;28;20252;-82
2021/03/12 06:55:44;;;;;;;4.30;0.90;;;10.10;99.90;;;;;;5030369;28;20722;-81
2021/03/12 06:58:25;;;;;;;4.10;1.63;;;10.10;99.90;;;;;;5033606;28;20664;-82
2021/03/12 07:01:17;;;;;;;6.50;1.50;;;10.20;99.90;;;;;;5033924;28;20277;-82
2021/03/12 07:03:45;;;;;;;5.57;1.50;;;10.20;99.90;;;;;;5001368;28;20203;-82
2021/03/12 07:06:23;;;;;;;3.67;0.90;;;10.30;99.90;;;;;;5017714;28;20192;-82
2021/03/12 07:08:54;;;;;;;2.80;1.08;;;10.40;99.90;;;;;;5017435;28;20165;-82
2021/03/12 07:11:38;;;;;;;4.88;1.23;;;10.50;99.90;;;;;;5019656;28;20173;-81
2021/03/12 07:14:27;;;;;;;4.97;1.60;;;10.60;99.90;;;;;;5028765;28;20644;-79
2021/03/12 07:16:59;;;;;;;4.18;1.45;;;10.70;99.90;;;;;;5017462;28;20217;-79
2021/03/12 07:19:25;;;;;;;6.25;2.08;;;10.70;99.90;;;;;;5016949;28;20165;-81
2021/03/12 07:21:56;;;;;;;3.57;1.20;;;10.80;99.90;;;;;;5016123;28;20340;-78
2021/03/12 07:24:25;;;;;;;7.60;2.17;;;10.90;99.90;;;;;;5033033;28;20702;-80
2021/03/12 07:26:56;;;;;;;6.55;1.30;;;11.00;99.90;;;;;;5052558;22;20224;-77
2021/03/12 07:29:28;;;;;;;4.53;1.30;;;11.00;99.90;;;;;;5033780;28;20177;-77
2021/03/12 07:32:12;;;;;;;10.10;1.85;;;11.10;99.90;;;;;;5039203;28;20179;-80
2021/03/12 07:34:39;;;;;;;10.00;1.48;;;11.20;99.90;;;;;;5033497;28;20181;-81
2021/03/12 07:37:20;;;;;;;8.73;1.50;;;11.20;99.90;;;;;;5032899;28;20204;-80
2021/03/12 07:39:47;;;;;;;6.18;2.17;;;11.30;99.90;;;;;;5051087;28;20180;-81
2021/03/12 07:42:20;;;;;;;7.00;1.98;;;11.40;99.90;;;;;;5013365;28;20182;-76
2021/03/12 07:45:19;;;;;;;4.75;1.45;;;11.50;99.90;;;;;;5035310;28;20219;-76
2021/03/12 07:48:04;;;;;;;7.95;1.75;;;11.60;99.90;;;;;;5050299;28;20264;-77
2021/03/12 07:50:44;;;;;;;5.07;1.30;;;11.80;99.90;;;;;;5032544;28;20177;-77
2021/03/12 07:53:17;;;;;;;5.03;1.40;;;11.90;99.90;;;;;;5029795;28;20184;-77
2021/03/12 07:55:52;;;;;;;6.47;1.65;;;12.10;99.90;;;;;;5033819;28;20211;-77
2021/03/12 07:58:55;;;;;;;3.17;1.25;;;12.30;99.90;;;;;;5050355;28;20246;-76
2021/03/12 08:01:56;;;;;;;4.15;1.35;;;12.60;99.90;;;;;;5034005;28;20226;-77
2021/03/12 08:04:57;;;;;;;4.57;1.20;;;13.10;99.90;;;;;;5050263;28;20672;-77
2021/03/12 08:07:34;;;;;;;8.63;1.20;;;13.80;99.90;;;;;;5016462;28;20183;-77
2021/03/12 08:10:17;;;;;;;9.57;2.23;;;14.40;99.90;;;;;;5021899;28;20588;-77
2021/03/12 08:12:53;;;;;;;3.80;1.20;;;14.90;99.90;;;;;;5032811;28;20626;-75
2021/03/12 08:15:30;;;;;;;6.70;1.20;;;15.20;99.90;;;;;;5050716;28;20599;-75
2021/03/12 08:18:10;;;;;;;4.33;1.57;;;15.30;99.90;;;;;;5032120;28;20641;-74
2021/03/12 08:20:43;;;;;;;3.60;1.27;;;15.30;99.90;;;;;;5039469;28;21038;-75
2021/03/12 08:23:35;;;;;;;4.20;1.20;;;15.30;99.90;;;;;;5047396;28;20623;-75
2021/03/12 08:26:08;;;;;;;6.20;1.73;;;15.10;99.90;;;;;;5036542;28;20204;-75
2021/03/12 08:28:52;;;;;;;5.50;1.15;;;14.90;99.90;;;;;;5053928;28;20173;-75
2021/03/12 08:31:56;;;;;;;5.93;1.05;;;14.70;99.90;;;;;;5036377;28;20779;-75
2021/03/12 08:34:42;;;;;;;5.95;1.20;;;14.50;99.30;;;;;;5026859;28;20217;-77
2021/03/12 08:37:29;;;;;;;7.15;1.88;;;14.20;99.20;;;;;;5054141;28;20200;-75
2021/03/12 08:40:22;;;;;;;5.53;1.10;;;13.90;99.50;;;;;;5036470;28;20172;-77
2021/03/12 08:43:16;;;;;;;4.80;1.10;;;13.80;99.50;;;;;;5036160;28;20169;-77
2021/03/12 08:45:56;;;;;;;6.25;1.00;;;13.50;99.40;;;;;;5024756;28;20684;-77
2021/03/12 08:48:30;;;;;;;4.93;1.02;;;13.40;99.60;;;;;;5035653;28;20870;-77
2021/03/12 08:51:11;;;;;;;4.18;1.15;;;13.30;99.50;;;;;;5036369;28;20617;-77
2021/03/12 08:53:48;;;;;;;3.65;0.98;;;13.10;99.20;;;;;;5035898;28;20260;-76
2021/03/12 08:56:36;;;;;;;5.60;1.42;;;13.00;99.40;;;;;;5035988;28;20192;-76
2021/03/12 08:59:04;;;;;;;4.93;1.23;;;12.90;99.30;;;;;;5035351;28;20177;-77
2021/03/12 09:01:58;;;;;;;5.60;1.17;;;12.80;99.80;;;;;;5036528;28;20181;-77
2021/03/12 09:04:30;;;;;;;7.35;1.50;;;12.80;99.90;;;;;;5035644;28;20188;-77
2021/03/12 09:07:02;;;;;;;5.90;1.23;;;12.70;99.70;;;;;;5035798;28;20197;-76
2021/03/12 09:09:50;;;;;;;12.48;2.53;;;12.70;99.90;;;;;;5035490;28;20184;-77
2021/03/12 09:12:45;;;;;;;6.70;1.08;;;12.70;99.90;;;;;;5018848;28;20224;-77
2021/03/12 09:15:25;;;;;;;4.50;1.20;;;12.70;99.90;;;;;;5035362;28;20201;-77
2021/03/12 09:17:57;;;;;;;6.25;1.77;;;12.70;99.90;;;;;;5035340;28;20203;-77
2021/03/12 09:20:25;;;;;;;4.15;1.33;;;12.60;99.90;;;;;;5045315;28;20192;-77
2021/03/12 09:22:58;;;;;;;8.63;1.60;;;12.60;99.90;;;;;;5041683;28;20184;-78
2021/03/12 09:25:33;;;;;;;8.15;1.45;;;12.70;99.90;;;;;;5051929;28;20193;-77
2021/03/12 09:28:08;;;;;;;6.93;1.65;;;12.70;99.90;;;;;;5052007;28;20237;-77
2021/03/12 09:30:41;;;;;;;5.45;1.30;;;12.70;99.90;;;;;;5061606;28;20584;-77
2021/03/12 09:33:35;;;;;;;5.88;1.40;;;12.70;99.90;;;;;;5055396;28;20184;-77
2021/03/12 09:36:39;;;;;;;5.75;1.27;;;12.70;99.80;;;;;;5055044;28;20196;-78
2021/03/12 09:39:26;;;;;;;4.40;1.10;;;12.80;99.90;;;;;;5072049;28;20187;-77
2021/03/12 09:41:59;;;;;;;5.20;1.00;;;13.10;99.90;;;;;;5054452;28;20517;-78
2021/03/12 09:44:27;;;;;;;3.13;1.00;;;13.20;99.90;;;;;;5072963;28;20161;-78
2021/03/12 09:47:08;;;;;;;5.55;1.02;;;13.30;99.90;;;;;;5054986;28;20191;-78
2021/03/12 09:49:42;;;;;;;3.67;0.98;;;13.40;99.80;;;;;;5054611;28;20168;-78
2021/03/12 09:52:12;;;;;;;4.53;1.13;;;13.50;99.90;;;;;;5055313;28;20182;-78
2021/03/12 09:54:42;;;;;;;4.03;0.98;;;13.50;99.50;;;;;;5037855;28;20207;-77
2021/03/12 09:57:10;;;;;;;18.05;2.70;;;13.50;99.60;;;;;;5044793;28;20220;-77
2021/03/12 09:59:37;;;;;;;7.28;1.10;;;13.60;99.50;;;;;;5021842;28;20629;-77
2021/03/12 10:02:22;;;;;;;6.32;1.10;;;13.70;99.20;;;;;;5052894;28;20189;-77
2021/03/12 10:05:07;;;;;;;3.88;0.98;;;13.70;99.00;;;;;;5034471;28;20175;-76
2021/03/12 10:08:05;;;;;;;6.85;1.48;;;13.80;99.10;;;;;;5034328;28;20534;-77
2021/03/12 10:10:55;;;;;;;2.73;0.90;;;14.10;99.90;;;;;;5034566;28;20180;-77
2021/03/12 10:13:25;;;;;;;4.10;0.80;;;14.40;99.40;;;;;;5034783;28;20571;-77
2021/03/12 10:15:52;;;;;;;4.10;1.17;;;14.70;99.70;;;;;;5017747;28;21386;-77
2021/03/12 10:18:31;;;;;;;3.43;0.93;;;15.00;99.80;;;;;;5034605;28;20615;-77
2021/03/12 10:21:08;;;;;;;4.00;0.80;;;15.30;99.40;;;;;;5052566;28;20984;-77
2021/03/12 10:23:35;;;;;;;3.67;1.07;;;15.50;98.20;;;;;;5052269;28;20175;-77
2021/03/12 10:26:04;;;;;;;4.60;1.00;;;15.70;98.40;;;;;;5051645;28;20642;-77
2021/03/12 10:28:30;;;;;;;3.60;0.80;;;15.80;97.40;;;;;;5050520;28;20986;-77
2021/03/12 10:30:58;;;;;;;3.83;1.10;;;15.80;96.80;;;;;;5063180;28;20602;-77
2021/03/12 10:33:30;;;;;;;5.60;0.83;;;16.00;96.70;;;;;;5071917;28;20628;-77
2021/03/12 10:36:04;;;;;;;2.47;0.70;;;16.20;96.30;;;;;;5053711;28;20621;-77
2021/03/12 10:38:33;;;;;;;4.23;1.20;;;16.30;96.10;;;;;;5072821;28;20720;-77
2021/03/12 10:41:14;;;;;;;8.10;1.80;;;16.40;95.50;;;;;;5053917;28;20601;-77
2021/03/12 10:43:40;;;;;;;4.97;1.27;;;16.50;94.60;;;;;;5070994;28;20594;-77
2021/03/12 10:46:08;;;;;;;3.30;0.80;;;16.50;94.10;;;;;;5072134;28;20661;-77
2021/03/12 10:48:40;;;;;;;3.60;0.90;;;16.50;94.10;;;;;;5053513;28;20191;-76
2021/03/12 10:51:06;;;;;;;3.77;1.33;;;16.60;94.30;;;;;;5071378;28;20562;-77
2021/03/12 10:53:44;;;;;;;4.80;0.80;;;16.70;93.50;;;;;;5053302;28;20577;-77
2021/03/12 10:56:10;;;;;;;3.37;0.90;;;16.70;92.20;;;;;;5069517;28;20594;-77
2021/03/12 10:58:38;;;;;;;3.27;0.83;;;16.70;92.30;;;;;;5033152;28;20638;-77
2021/03/12 11:01:37;;;;;;;2.40;1.00;;;16.80;92.50;;;;;;5033647;28;20173;-77
2021/03/12 11:04:08;;;;;;;5.63;1.37;;;16.90;92.90;;;;;;5017688;28;20964;-77
2021/03/12 11:06:38;;;;;;;5.63;1.83;;;17.10;92.10;;;;;;5033643;28;21189;-77
2021/03/12 11:09:06;;;;;;;3.50;1.20;;;17.30;92.60;;;;;;5033225;28;20620;-77
2021/03/12 11:11:32;;;;;;;4.23;1.93;;;17.40;91.90;;;;;;5051425;28;20733;-78
2021/03/12 11:13:58;;;;;;;3.20;1.60;;;17.40;91.30;;;;;;5055377;28;20928;-78
2021/03/12 11:16:24;;;;;;;3.67;1.30;;;17.40;90.90;;;;;;5052492;28;20603;-77
2021/03/12 11:18:50;;;;;;;4.50;1.20;;;17.30;90.50;;;;;;5050647;28;20287;-78
2021/03/12 11:21:16;;;;;;;2.70;0.80;;;17.30;90.90;;;;;;5049969;28;20698;-78
2021/03/12 11:23:42;;;;;;;2.67;1.00;;;17.40;90.80;;;;;;5050993;28;20169;-77
2021/03/12 11:26:08;;;;;;;2.78;1.20;;;17.50;90.10;;;;;;5049938;28;20723;-76
2021/03/12 11:28:34;;;;;;;2.90;1.33;;;17.10;79.20;;;;;;5050627;28;20187;-77
2021/03/12 11:31:02;;;;;;;3.60;0.93;;;17.00;83.00;;;;;;5063641;28;20582;-77
2021/03/12 11:33:29;;;;;;;2.73;0.90;;;16.90;83.80;;;;;;5071023;28;20255;-77
2021/03/12 11:35:55;;;;;;;3.07;1.00;;;16.90;85.00;;;;;;5071101;28;20682;-77
2021/03/12 11:38:21;;;;;;;2.40;0.90;;;16.80;84.50;;;;;;5070397;28;20963;-77
2021/03/12 11:40:47;;;;;;;2.33;0.90;;;16.90;85.70;;;;;;5071398;28;20620;-77
2021/03/12 11:43:13;;;;;;;3.60;0.87;;;16.80;85.50;;;;;;5070975;28;20560;-77
2021/03/12 11:45:39;;;;;;;3.37;1.10;;;16.80;84.90;;;;;;5071158;28;21504;-77
2021/03/12 11:48:06;;;;;;;6.00;1.30;;;16.70;83.00;;;;;;5052050;28;21276;-77
2021/03/12 11:50:34;;;;;;;3.70;1.40;;;16.50;78.60;;;;;;5074627;28;20567;-77
2021/03/12 11:53:00;;;;;;;4.50;1.10;;;16.60;81.90;;;;;;5079978;28;20715;-77
2021/03/12 11:55:26;;;;;;;3.10;1.10;;;16.70;79.40;;;;;;5073402;28;20188;-77
2021/03/12 11:57:52;;;;;;;2.33;1.27;;;16.90;83.00;;;;;;5040478;28;20631;-77
2021/03/12 12:00:18;;;;;;;1.70;0.80;;;17.10;84.20;;;;;;5053038;28;20934;-77
2021/03/12 12:02:47;;;;;;;2.77;1.00;;;17.50;86.60;;;;;;5032966;28;20188;-77
2021/03/12 12:05:14;;;;;;;3.20;0.80;;;17.80;86.70;;;;;;5054873;28;20603;-77
2021/03/12 12:07:40;;;;;;;5.40;1.30;;;18.20;86.40;;;;;;5053956;28;20705;-77
2021/03/12 12:10:09;;;;;;;4.75;1.30;;;18.30;74.50;;;;;;5053470;28;20762;-77
2021/03/12 12:12:35;;;;;;;3.43;0.90;;;18.40;70.40;;;;;;5054615;28;20544;-76
2021/03/12 12:15:02;;;;;;;3.10;1.10;;;18.70;76.50;;;;;;5054558;28;20585;-76
2021/03/12 12:17:27;;;;;;;3.60;0.80;;;18.80;75.60;;;;;;5031279;28;20628;-76
2021/03/12 12:19:53;;;;;;;3.00;0.87;;;18.80;74.00;;;;;;5033161;28;20637;-75
2021/03/12 12:22:19;;;;;;;4.40;1.40;;;18.70;73.10;;;;;;5053414;28;21295;-76
2021/03/12 12:24:45;;;;;;;3.35;1.50;;;18.40;65.40;;;;;;5036191;28;21131;-76
2021/03/12 12:27:12;;;;;;;2.97;1.00;;;18.10;64.70;;;;;;5054005;28;20244;-76
2021/03/12 12:29:39;;;;;;;3.80;1.27;;;18.00;67.10;;;;;;5049643;28;20181;-76
2021/03/12 12:32:06;;;;;;;4.00;0.93;;;17.90;68.20;;;;;;5047486;28;20588;-76
2021/03/12 12:34:32;;;;;;;3.20;1.00;;;17.80;68.10;;;;;;5036114;28;20594;-76
2021/03/12 12:36:57;;;;;;;3.60;0.93;;;17.60;68.60;;;;;;5053901;28;20738;-76
2021/03/12 12:39:24;;;;;;;3.83;1.00;;;17.50;68.50;;;;;;5053862;28;20170;-76
2021/03/12 12:41:49;;;;;;;5.27;1.20;;;17.40;68.50;;;;;;5036383;28;20267;-76
2021/03/12 12:44:16;;;;;;;4.23;1.10;;;17.30;69.70;;;;;;5036078;28;20622;-76
2021/03/12 12:46:43;;;;;;;4.77;1.20;;;17.30;70.80;;;;;;5036138;28;20192;-77
2021/03/12 12:49:09;;;;;;;4.13;0.77;;;17.30;71.40;;;;;;5035668;28;20583;-77
2021/03/12 12:51:37;;;;;;;3.70;1.20;;;17.40;71.20;;;;;;5053674;28;20701;-76
2021/03/12 12:54:42;;;;;;;6.50;1.50;;;17.40;69.30;;;;;;5028145;28;21170;-76
2021/03/12 12:57:16;;;;;;;6.60;2.23;;;17.40;70.10;;;;;;5048860;28;20654;-76
2021/03/12 12:59:44;;;;;;;4.63;1.23;;;17.40;69.30;;;;;;4989190;28;21004;-76
2021/03/12 13:02:10;;;;;;;2.80;0.90;;;17.30;69.00;;;;;;5029941;28;21177;-77
2021/03/12 13:04:38;;;;;;;5.10;0.90;;;17.20;69.10;;;;;;5045683;28;20587;-77
2021/03/12 13:07:04;;;;;;;3.87;1.20;;;17.00;68.30;;;;;;5035029;28;20651;-77
2021/03/12 13:09:30;;;;;;;2.70;0.80;;;16.90;68.90;;;;;;5002055;28;21014;-76
2021/03/12 13:11:56;;;;;;;4.23;0.93;;;16.80;69.00;;;;;;5052688;28;20583;-76
2021/03/12 13:14:22;;;;;;;3.07;1.00;;;16.70;69.20;;;;;;5043039;28;20256;-76
2021/03/12 13:16:49;;;;;;;5.67;1.47;;;16.60;69.30;;;;;;5046211;28;20613;-76
2021/03/12 13:19:15;;;;;;;2.00;0.83;;;16.50;69.40;;;;;;5043461;28;20595;-77
2021/03/12 13:21:42;;;;;;;3.80;1.17;;;16.40;69.20;;;;;;5047542;28;20219;-76
2021/03/12 13:24:08;;;;;;;3.47;1.03;;;16.40;69.20;;;;;;5052191;28;20176;-77